Time;durP1;ratioP1;P1;durP2;ratioP2;P2;SDS_P1;SDS_P2;PMS_P1;PMS_P2;Temp;Humidity;BMP_temperature;BMP_pressure;BME280_temperature;BME280_humidity;BME280_pressure;Samples;Min_cycle;Max_cycle;Signal;HPM_P1;HPM_P2
2023/09/12 10:17:19;;;;;;;17.02;11.75;;;;;;;;;;6360084;22;20033;-85
2023/09/12 10:19:54;;;;;;;16.87;12.13;;;;;;;;;;6195498;22;1366670;-84
2023/09/12 10:22:35;;;;;;;16.35;12.80;;;;;;;;;;6249769;22;20736;-84
2023/09/12 10:25:01;;;;;;;21.45;12.75;;;;;;;;;;6249937;22;20284;-84
2023/09/12 10:27:28;;;;;;;18.35;12.77;;;;;;;;;;6224803;22;20071;-84
2023/09/12 10:29:59;;;;;;;15.60;10.77;;;;;;;;;;6249163;22;20015;-84
2023/09/12 10:32:26;;;;;;;14.25;9.68;;;;;;;;;;6249273;22;20443;-84
2023/09/12 10:34:53;;;;;;;14.02;9.45;;;;;;;;;;6248871;22;20020;-83
2023/09/12 10:37:19;;;;;;;13.18;9.60;;;;;;;;;;6248987;22;20047;-84
2023/09/12 10:39:46;;;;;;;14.63;11.23;;;;;;;;;;6224610;22;20022;-84
2023/09/12 10:42:13;;;;;;;11.85;9.57;;;;;;;;;;6250077;22;20012;-83
2023/09/12 10:44:41;;;;;;;14.55;11.35;;;;;;;;;;6249685;22;20123;-84
2023/09/12 10:47:08;;;;;;;15.15;10.80;;;;;;;;;;6275709;22;20427;-85
2023/09/12 10:49:37;;;;;;;14.18;11.45;;;;;;;;;;6277048;22;20019;-84
2023/09/12 10:52:03;;;;;;;15.23;11.55;;;;;;;;;;6225154;22;20015;-85
2023/09/12 10:54:56;;;;;;;16.02;10.35;;;;;;;;;;6225092;22;20023;-84
2023/09/12 10:57:22;;;;;;;13.50;10.10;;;;;;;;;;6274465;22;20341;-84
2023/09/12 11:00:04;;;;;;;11.02;9.73;;;;;;;;;;6251178;22;20023;-85
2023/09/12 11:02:34;;;;;;;12.82;10.35;;;;;;;;;;6205621;23;20018;-84
2023/09/12 11:05:01;;;;;;;13.93;9.70;;;;;;;;;;6220182;23;20020;-85
2023/09/12 11:07:43;;;;;;;13.77;9.70;;;;;;;;;;6196444;23;20012;-85
2023/09/12 11:10:18;;;;;;;10.95;9.32;;;;;;;;;;6221153;23;20016;-85
2023/09/12 11:12:49;;;;;;;12.15;9.82;;;;;;;;;;6196914;23;20042;-85
2023/09/12 11:15:15;;;;;;;13.65;9.20;;;;;;;;;;6195075;23;20515;-85
2023/09/12 11:17:46;;;;;;;12.35;8.52;;;;;;;;;;6195071;23;20348;-84
2023/09/12 11:20:13;;;;;;;10.13;7.82;;;;;;;;;;6194736;23;20048;-85
2023/09/12 11:22:43;;;;;;;10.18;7.45;;;;;;;;;;6195143;23;20030;-84
2023/09/12 11:25:25;;;;;;;9.48;7.82;;;;;;;;;;6220732;23;20020;-85
2023/09/12 11:27:51;;;;;;;9.50;7.93;;;;;;;;;;6195162;23;20439;-84
2023/09/12 11:30:21;;;;;;;10.15;7.85;;;;;;;;;;6195519;23;20012;-85
2023/09/12 11:32:49;;;;;;;8.68;7.70;;;;;;;;;;6220169;23;20034;-85
2023/09/12 11:35:19;;;;;;;9.95;7.90;;;;;;;;;;6195256;23;20027;-84
2023/09/12 11:37:49;;;;;;;11.70;7.80;;;;;;;;;;6219920;23;20031;-85
2023/09/12 11:40:16;;;;;;;11.52;7.60;;;;;;;;;;6194693;23;20024;-84
2023/09/12 11:42:43;;;;;;;7.60;6.70;;;;;;;;;;6220049;23;20020;-85
2023/09/12 11:45:12;;;;;;;9.30;7.38;;;;;;;;;;6195560;23;20090;-85
2023/09/12 11:47:42;;;;;;;10.25;7.60;;;;;;;;;;6246752;23;20013;-84
2023/09/12 11:50:09;;;;;;;9.90;7.68;;;;;;;;;;6220106;23;20016;-85
2023/09/12 11:52:40;;;;;;;11.52;7.82;;;;;;;;;;6219932;23;20019;-85
2023/09/12 11:55:07;;;;;;;10.15;8.35;;;;;;;;;;6195001;23;20084;-84
2023/09/12 11:57:34;;;;;;;9.65;7.60;;;;;;;;;;6194770;23;20052;-84
2023/09/12 12:00:08;;;;;;;7.60;6.60;;;;;;;;;;6194838;23;20024;-84
2023/09/12 12:02:34;;;;;;;7.63;6.82;;;;;;;;;;6194917;23;20020;-84
2023/09/12 12:05:01;;;;;;;8.50;6.30;;;;;;;;;;6194728;23;20023;-85
2023/09/12 12:07:27;;;;;;;9.82;5.90;;;;;;;;;;6219577;23;20016;-85
2023/09/12 12:09:53;;;;;;;6.35;5.75;;;;;;;;;;6219778;23;20012;-85
2023/09/12 12:12:20;;;;;;;9.82;5.82;;;;;;;;;;6194935;23;20016;-85
2023/09/12 12:14:46;;;;;;;6.15;5.18;;;;;;;;;;6220104;23;20016;-85
2023/09/12 12:17:12;;;;;;;7.25;5.50;;;;;;;;;;6220255;23;20012;-85
2023/09/12 12:19:39;;;;;;;6.35;5.63;;;;;;;;;;6220798;23;20355;-85
2023/09/12 12:22:06;;;;;;;8.23;6.00;;;;;;;;;;6194263;23;20098;-85
2023/09/12 12:24:42;;;;;;;7.13;5.93;;;;;;;;;;6194148;23;20020;-85
2023/09/12 12:27:09;;;;;;;6.85;5.22;;;;;;;;;;6246215;23;20016;-85
2023/09/12 12:29:39;;;;;;;6.93;5.28;;;;;;;;;;6194214;23;20081;-85
2023/09/12 12:32:05;;;;;;;7.70;6.10;;;;;;;;;;6219642;23;20105;-85
2023/09/12 12:34:31;;;;;;;6.68;5.30;;;;;;;;;;6194513;23;20024;-84
2023/09/12 12:36:57;;;;;;;6.45;5.50;;;;;;;;;;6219538;23;20019;-85
2023/09/12 12:39:24;;;;;;;8.48;7.00;;;;;;;;;;6194059;23;20378;-85
2023/09/12 12:41:53;;;;;;;10.93;8.50;;;;;;;;;;6219062;23;20023;-85
2023/09/12 12:44:19;;;;;;;9.90;8.05;;;;;;;;;;6194553;23;20016;-85
2023/09/12 12:46:54;;;;;;;11.65;7.63;;;;;;;;;;6219878;23;20134;-84
2023/09/12 12:49:21;;;;;;;9.20;6.13;;;;;;;;;;6219198;23;20016;-84
2023/09/12 12:51:48;;;;;;;10.45;7.10;;;;;;;;;;6219674;23;20019;-84
2023/09/12 12:54:14;;;;;;;9.77;7.05;;;;;;;;;;6194692;23;20016;-85
2023/09/12 12:56:40;;;;;;;9.00;5.78;;;;;;;;;;6219440;23;20078;-84
2023/09/12 12:59:08;;;;;;;6.85;5.43;;;;;;;;;;6194442;23;20086;-84
2023/09/12 13:01:38;;;;;;;7.55;5.47;;;;;;;;;;6193953;23;20463;-84
2023/09/12 13:04:06;;;;;;;7.97;4.88;;;;;;;;;;6219104;23;20020;-84
2023/09/12 13:06:35;;;;;;;9.45;5.25;;;;;;;;;;6194548;23;20412;-85
2023/09/12 13:09:05;;;;;;;6.88;4.82;;;;;;;;;;6246677;23;20016;-84
2023/09/12 13:11:35;;;;;;;7.07;4.78;;;;;;;;;;6194425;23;20372;-85
2023/09/12 13:14:02;;;;;;;6.18;3.92;;;;;;;;;;6219272;23;20012;-88
2023/09/12 13:16:34;;;;;;;7.78;4.30;;;;;;;;;;6196037;23;20424;-87
2023/09/12 13:19:37;;;;;;;6.90;4.00;;;;;;;;;;6196520;23;20050;-87
2023/09/12 13:22:15;;;;;;;6.38;4.40;;;;;;;;;;6197017;23;20070;-89
2023/09/12 13:24:41;;;;;;;6.65;4.50;;;;;;;;;;6195871;23;20040;-86
2023/09/12 13:27:10;;;;;;;6.28;4.03;;;;;;;;;;6221262;23;20439;-87
2023/09/12 13:29:38;;;;;;;6.47;4.10;;;;;;;;;;6220565;23;20012;-86
2023/09/12 13:32:07;;;;;;;7.15;4.18;;;;;;;;;;6194723;23;20020;-87
2023/09/12 13:34:37;;;;;;;5.03;3.78;;;;;;;;;;6219916;23;20127;-86
2023/09/12 13:37:03;;;;;;;4.88;3.40;;;;;;;;;;6195782;23;20052;-87
2023/09/12 13:39:29;;;;;;;7.57;3.67;;;;;;;;;;6219590;23;20046;-85
2023/09/12 13:41:57;;;;;;;7.32;3.90;;;;;;;;;;6196458;23;20027;-85
2023/09/12 13:44:23;;;;;;;5.05;3.70;;;;;;;;;;6195565;23;20020;-86
2023/09/12 13:46:53;;;;;;;6.88;4.00;;;;;;;;;;6222616;23;20023;-86
2023/09/12 13:49:37;;;;;;;5.15;3.40;;;;;;;;;;6215344;23;20027;-85
2023/09/12 13:52:12;;;;;;;5.03;3.45;;;;;;;;;;6180962;23;20016;-86
2023/09/12 13:54:41;;;;;;;6.47;4.20;;;;;;;;;;6190311;23;20013;-86
2023/09/12 13:57:07;;;;;;;6.45;4.50;;;;;;;;;;6164526;23;20051;-87
2023/09/12 13:59:33;;;;;;;7.20;4.95;;;;;;;;;;6188993;23;20017;-87
2023/09/12 14:01:59;;;;;;;6.60;5.65;;;;;;;;;;6164922;23;20084;-87
2023/09/12 14:04:26;;;;;;;8.77;5.20;;;;;;;;;;6187674;23;20520;-87
2023/09/12 14:06:52;;;;;;;7.90;4.55;;;;;;;;;;6187327;23;20107;-86
2023/09/12 14:09:18;;;;;;;6.22;4.40;;;;;;;;;;6187556;23;20329;-87
2023/09/12 14:11:46;;;;;;;6.45;4.30;;;;;;;;;;6162373;23;20047;-87
2023/09/12 14:14:12;;;;;;;7.40;4.70;;;;;;;;;;6163711;23;20020;-87
2023/09/12 14:16:41;;;;;;;7.30;4.10;;;;;;;;;;6178971;23;20012;-88
2023/09/12 14:19:11;;;;;;;7.80;4.25;;;;;;;;;;6219131;23;20023;-87
2023/09/12 14:21:40;;;;;;;9.02;4.10;;;;;;;;;;6246043;23;20016;-89
2023/09/12 14:24:09;;;;;;;7.38;4.53;;;;;;;;;;6245669;23;20066;-87
2023/09/12 14:26:35;;;;;;;6.25;4.47;;;;;;;;;;6220015;23;20024;-86
2023/09/12 14:29:01;;;;;;;8.35;4.80;;;;;;;;;;6220933;23;20015;-86
2023/09/12 14:31:27;;;;;;;6.30;4.32;;;;;;;;;;6221285;23;20020;-86
2023/09/12 14:33:53;;;;;;;5.10;3.50;;;;;;;;;;6220689;23;20023;-87
2023/09/12 14:36:28;;;;;;;4.57;3.50;;;;;;;;;;6220745;23;20032;-88
2023/09/12 14:38:54;;;;;;;7.70;3.50;;;;;;;;;;6219906;23;20020;-88
2023/09/12 14:41:20;;;;;;;6.50;3.78;;;;;;;;;;6195299;23;20013;-85
2023/09/12 14:43:46;;;;;;;6.68;3.65;;;;;;;;;;6220110;23;20451;-85
2023/09/12 14:46:12;;;;;;;5.18;3.40;;;;;;;;;;6194772;23;20012;-86
2023/09/12 14:48:38;;;;;;;4.85;3.38;;;;;;;;;;6195646;23;20020;-85
2023/09/12 14:51:04;;;;;;;4.43;3.45;;;;;;;;;;6247367;23;20111;-85
2023/09/12 14:53:31;;;;;;;4.32;3.17;;;;;;;;;;6247374;23;20027;-85
2023/09/12 14:55:58;;;;;;;4.97;3.10;;;;;;;;;;6220583;23;20019;-85
2023/09/12 14:58:24;;;;;;;7.20;3.78;;;;;;;;;;6247031;23;20019;-84
2023/09/12 15:00:50;;;;;;;6.28;3.50;;;;;;;;;;6220823;23;20019;-84
2023/09/12 15:03:16;;;;;;;8.00;4.60;;;;;;;;;;6195044;23;20087;-84
2023/09/12 15:05:43;;;;;;;6.72;4.20;;;;;;;;;;6220562;23;20020;-84
2023/09/12 15:08:09;;;;;;;7.70;3.85;;;;;;;;;;6195392;23;20017;-83
2023/09/12 15:10:35;;;;;;;7.45;4.28;;;;;;;;;;6247282;23;20020;-87
2023/09/12 15:13:01;;;;;;;4.90;3.60;;;;;;;;;;6247292;23;20432;-83
2023/09/12 15:15:27;;;;;;;5.35;4.20;;;;;;;;;;6195029;23;20443;-85
2023/09/12 15:17:53;;;;;;;5.72;3.30;;;;;;;;;;6246825;23;20020;-83
2023/09/12 15:20:19;;;;;;;6.45;3.85;;;;;;;;;;6219564;23;20090;-85
2023/09/12 15:22:46;;;;;;;7.97;4.22;;;;;;;;;;6247033;23;20016;-85
2023/09/12 15:25:12;;;;;;;4.95;3.70;;;;;;;;;;6247357;23;20020;-84
2023/09/12 15:27:38;;;;;;;4.15;3.58;;;;;;;;;;6220056;23;20034;-84
2023/09/12 15:30:05;;;;;;;4.57;3.55;;;;;;;;;;6219874;23;20447;-83
2023/09/12 15:32:31;;;;;;;4.18;3.55;;;;;;;;;;6220123;23;20344;-83
2023/09/12 15:34:57;;;;;;;5.95;3.38;;;;;;;;;;6220536;23;20055;-83
2023/09/12 15:37:23;;;;;;;6.13;3.35;;;;;;;;;;6220147;23;20016;-84
2023/09/12 15:39:50;;;;;;;9.13;3.25;;;;;;;;;;6220894;23;20027;-83
2023/09/12 15:42:16;;;;;;;5.05;2.95;;;;;;;;;;6220423;23;20047;-84
2023/09/12 15:44:42;;;;;;;3.88;2.90;;;;;;;;;;6194950;23;20023;-84
2023/09/12 15:47:09;;;;;;;4.30;2.78;;;;;;;;;;6219980;23;20091;-84
2023/09/12 15:49:35;;;;;;;3.70;2.40;;;;;;;;;;6246824;23;20012;-84
2023/09/12 15:52:01;;;;;;;3.72;2.20;;;;;;;;;;6246610;23;20012;-84
2023/09/12 15:54:30;;;;;;;3.90;2.60;;;;;;;;;;6246568;23;20016;-85
2023/09/12 15:56:56;;;;;;;6.95;3.05;;;;;;;;;;6220109;23;20020;-83
2023/09/12 15:59:22;;;;;;;6.28;2.70;;;;;;;;;;6219957;23;20023;-83
2023/09/12 16:01:48;;;;;;;4.10;2.70;;;;;;;;;;6194412;23;20103;-83
2023/09/12 16:04:14;;;;;;;4.80;2.55;;;;;;;;;;6194236;23;20042;-83
2023/09/12 16:06:40;;;;;;;4.30;2.90;;;;;;;;;;6219435;23;20020;-87
2023/09/12 16:09:06;;;;;;;7.53;2.80;;;;;;;;;;6219805;23;20023;-84
2023/09/12 16:11:33;;;;;;;4.85;3.10;;;;;;;;;;6220039;23;20336;-85
2023/09/12 16:14:00;;;;;;;3.95;3.28;;;;;;;;;;6195058;23;20019;-85
2023/09/12 16:16:26;;;;;;;4.50;3.08;;;;;;;;;;6246704;23;20020;-84
2023/09/12 16:18:52;;;;;;;5.95;2.70;;;;;;;;;;6219751;23;20461;-85
2023/09/12 16:21:18;;;;;;;3.90;2.53;;;;;;;;;;6220271;23;20066;-86
2023/09/12 16:23:44;;;;;;;3.65;2.80;;;;;;;;;;6220051;23;20020;-85
2023/09/12 16:26:11;;;;;;;5.10;2.80;;;;;;;;;;6194746;23;20041;-85
2023/09/12 16:28:37;;;;;;;4.47;3.13;;;;;;;;;;6194874;23;20106;-85
2023/09/12 16:31:03;;;;;;;3.88;2.90;;;;;;;;;;6194953;23;20146;-85
2023/09/12 16:33:32;;;;;;;3.83;3.17;;;;;;;;;;6219499;23;20046;-84
2023/09/12 16:36:05;;;;;;;4.13;3.30;;;;;;;;;;6219342;23;20086;-83
2023/09/12 16:38:31;;;;;;;6.82;3.40;;;;;;;;;;6246569;23;20070;-86
2023/09/12 16:40:57;;;;;;;4.07;3.00;;;;;;;;;;6194810;23;20031;-86
2023/09/12 16:43:23;;;;;;;7.05;3.88;;;;;;;;;;6246456;23;20362;-85
2023/09/12 16:45:49;;;;;;;5.50;3.65;;;;;;;;;;6219640;23;20336;-84
2023/09/12 16:48:20;;;;;;;4.65;3.58;;;;;;;;;;6194499;23;20016;-85
2023/09/12 16:50:49;;;;;;;4.93;3.58;;;;;;;;;;6193318;23;20016;-86
2023/09/12 16:53:17;;;;;;;6.07;3.38;;;;;;;;;;6193585;23;20012;-85
2023/09/12 16:55:43;;;;;;;4.55;3.70;;;;;;;;;;6193939;23;20362;-85
2023/09/12 16:58:10;;;;;;;5.03;3.65;;;;;;;;;;6219036;23;20344;-85
2023/09/12 17:00:36;;;;;;;7.15;4.00;;;;;;;;;;6218469;23;20031;-85
2023/09/12 17:03:02;;;;;;;6.78;3.85;;;;;;;;;;6218928;23;20019;-85
2023/09/12 17:05:28;;;;;;;5.78;4.38;;;;;;;;;;6193924;23;20020;-85
2023/09/12 17:07:54;;;;;;;8.80;4.03;;;;;;;;;;6192827;23;20127;-85
2023/09/12 17:10:21;;;;;;;5.18;3.58;;;;;;;;;;6193719;23;20020;-85
2023/09/12 17:12:53;;;;;;;4.90;3.63;;;;;;;;;;6193347;23;20454;-86
2023/09/12 17:15:20;;;;;;;6.68;3.55;;;;;;;;;;6194127;23;20316;-86
2023/09/12 17:17:46;;;;;;;5.22;3.33;;;;;;;;;;6192959;23;20113;-85
2023/09/12 17:20:16;;;;;;;7.03;3.83;;;;;;;;;;6193650;23;20034;-84
2023/09/12 17:22:42;;;;;;;6.28;3.10;;;;;;;;;;6218881;23;20016;-85
2023/09/12 17:25:09;;;;;;;8.05;3.40;;;;;;;;;;6218622;23;20048;-84
2023/09/12 17:27:35;;;;;;;5.18;3.22;;;;;;;;;;6218345;23;20020;-84
2023/09/12 17:30:04;;;;;;;4.22;3.30;;;;;;;;;;6193139;23;20028;-85
2023/09/12 17:32:31;;;;;;;5.75;3.78;;;;;;;;;;6193865;23;20455;-84
2023/09/12 17:34:59;;;;;;;4.00;3.08;;;;;;;;;;6193517;23;20027;-85
2023/09/12 17:37:25;;;;;;;4.78;3.35;;;;;;;;;;6192879;23;20020;-85
2023/09/12 17:39:51;;;;;;;5.38;3.20;;;;;;;;;;6193667;23;20024;-84
2023/09/12 17:42:20;;;;;;;5.55;3.60;;;;;;;;;;6219223;23;20100;-85
2023/09/12 17:44:46;;;;;;;6.35;3.70;;;;;;;;;;6245348;23;20099;-84
2023/09/12 17:47:15;;;;;;;5.00;3.40;;;;;;;;;;6193831;23;20020;-84
2023/09/12 17:49:44;;;;;;;5.07;3.40;;;;;;;;;;6219639;23;20016;-84
2023/09/12 17:52:10;;;;;;;8.40;3.25;;;;;;;;;;6220401;23;20040;-84
2023/09/12 17:54:37;;;;;;;4.05;3.03;;;;;;;;;;6197769;23;20016;-84
2023/09/12 17:57:05;;;;;;;4.30;3.20;;;;;;;;;;6195485;23;20020;-84
2023/09/12 17:59:31;;;;;;;4.72;2.80;;;;;;;;;;6193061;23;20020;-84
2023/09/12 18:01:58;;;;;;;5.15;3.15;;;;;;;;;;6193555;23;20020;-83
2023/09/12 18:04:27;;;;;;;6.03;2.90;;;;;;;;;;6218679;23;20013;-84
2023/09/12 18:06:53;;;;;;;6.13;2.67;;;;;;;;;;6193884;23;20098;-84
2023/09/12 18:09:19;;;;;;;4.57;2.83;;;;;;;;;;6192790;23;20016;-83
2023/09/12 18:11:46;;;;;;;4.97;2.60;;;;;;;;;;6245329;23;20020;-84
2023/09/12 18:14:12;;;;;;;5.65;3.22;;;;;;;;;;6194049;23;20023;-83
2023/09/12 18:16:38;;;;;;;4.30;2.88;;;;;;;;;;6193534;23;20032;-84
2023/09/12 18:19:04;;;;;;;4.63;2.72;;;;;;;;;;6193294;23;20404;-83
2023/09/12 18:21:30;;;;;;;5.40;3.00;;;;;;;;;;6193437;23;20035;-84
2023/09/12 18:23:56;;;;;;;15.35;3.60;;;;;;;;;;6193818;23;20024;-84
2023/09/12 18:26:24;;;;;;;5.70;3.50;;;;;;;;;;6192934;23;20016;-83
2023/09/12 18:28:51;;;;;;;5.40;3.53;;;;;;;;;;6246127;23;20344;-84
2023/09/12 18:31:20;;;;;;;7.25;3.85;;;;;;;;;;6192892;23;20027;-84
2023/09/12 18:33:46;;;;;;;5.82;3.60;;;;;;;;;;6193909;23;20022;-85
2023/09/12 18:36:15;;;;;;;4.90;3.47;;;;;;;;;;6218931;23;20040;-84
2023/09/12 18:38:42;;;;;;;5.40;3.40;;;;;;;;;;6245073;23;20053;-84
2023/09/12 18:41:09;;;;;;;7.00;4.63;;;;;;;;;;6192458;23;20016;-84
2023/09/12 18:43:35;;;;;;;4.95;3.90;;;;;;;;;;6218698;23;20012;-84
2023/09/12 18:46:01;;;;;;;4.13;3.20;;;;;;;;;;6193751;23;20017;-84
2023/09/12 18:48:28;;;;;;;5.00;2.95;;;;;;;;;;6218630;23;20016;-84
2023/09/12 18:50:55;;;;;;;4.82;3.63;;;;;;;;;;6244752;23;20020;-83
2023/09/12 18:53:21;;;;;;;5.70;3.40;;;;;;;;;;6218377;23;20444;-84
2023/09/12 18:55:48;;;;;;;4.72;3.25;;;;;;;;;;6218328;23;20023;-84
2023/09/12 18:58:14;;;;;;;4.38;2.92;;;;;;;;;;6218409;23;20012;-84
2023/09/12 19:00:42;;;;;;;4.43;3.30;;;;;;;;;;6217990;23;20095;-84
2023/09/12 19:03:09;;;;;;;5.60;3.15;;;;;;;;;;6218577;23;20335;-83
2023/09/12 19:05:35;;;;;;;6.32;3.25;;;;;;;;;;6193587;23;20082;-83
2023/09/12 19:08:02;;;;;;;10.30;3.10;;;;;;;;;;6218481;23;20039;-84
2023/09/12 19:10:31;;;;;;;7.90;2.95;;;;;;;;;;6218174;23;20050;-83
2023/09/12 19:12:57;;;;;;;8.90;3.10;;;;;;;;;;6219549;23;20042;-83
2023/09/12 19:15:24;;;;;;;6.55;3.17;;;;;;;;;;6194559;23;20584;-82
2023/09/12 19:17:51;;;;;;;10.38;3.17;;;;;;;;;;6222014;23;20016;-83
2023/09/12 19:20:17;;;;;;;7.20;2.70;;;;;;;;;;6196947;23;20031;-84
2023/09/12 19:22:43;;;;;;;10.18;2.95;;;;;;;;;;6196190;23;20020;-83
2023/09/12 19:25:10;;;;;;;7.15;3.17;;;;;;;;;;6219361;23;20027;-84
2023/09/12 19:27:36;;;;;;;8.15;2.90;;;;;;;;;;6220175;23;20054;-84
2023/09/12 19:30:03;;;;;;;8.10;2.67;;;;;;;;;;6219671;23;20038;-83
2023/09/12 19:32:30;;;;;;;7.45;3.42;;;;;;;;;;6194424;23;20047;-84
2023/09/12 19:34:58;;;;;;;9.27;2.83;;;;;;;;;;6194162;23;20020;-84
2023/09/12 19:37:27;;;;;;;9.60;3.17;;;;;;;;;;6194746;23;20023;-83
2023/09/12 19:39:53;;;;;;;11.80;3.25;;;;;;;;;;6194261;23;20340;-83
2023/09/12 19:42:19;;;;;;;7.82;3.45;;;;;;;;;;6194304;23;20016;-83
2023/09/12 19:44:46;;;;;;;7.95;3.00;;;;;;;;;;6218836;23;20045;-83
2023/09/12 19:47:19;;;;;;;13.95;3.40;;;;;;;;;;6219302;23;20351;-83
2023/09/12 19:49:46;;;;;;;8.13;2.80;;;;;;;;;;6218721;23;20321;-83
2023/09/12 19:52:12;;;;;;;6.78;3.15;;;;;;;;;;6218892;23;20016;-84
2023/09/12 19:54:39;;;;;;;6.53;3.00;;;;;;;;;;6193760;23;20040;-84
2023/09/12 19:57:08;;;;;;;10.38;3.35;;;;;;;;;;6194167;23;20039;-83
2023/09/12 19:59:35;;;;;;;11.57;4.05;;;;;;;;;;6218645;23;20020;-83
2023/09/12 20:02:03;;;;;;;9.18;2.97;;;;;;;;;;6193923;23;20273;-83
2023/09/12 20:04:29;;;;;;;7.45;2.95;;;;;;;;;;6219358;23;20081;-83
2023/09/12 20:06:56;;;;;;;6.47;2.90;;;;;;;;;;6194207;23;20091;-83
2023/09/12 20:09:22;;;;;;;9.93;2.88;;;;;;;;;;6218224;23;20022;-82
2023/09/12 20:11:49;;;;;;;7.28;2.72;;;;;;;;;;6194343;23;20047;-83
2023/09/12 20:14:15;;;;;;;7.38;3.00;;;;;;;;;;6219077;23;20044;-83
2023/09/12 20:16:42;;;;;;;6.45;3.17;;;;;;;;;;6219019;23;20348;-82
2023/09/12 20:19:11;;;;;;;8.38;2.80;;;;;;;;;;6192976;23;20447;-85
2023/09/12 20:21:38;;;;;;;11.18;3.17;;;;;;;;;;6192063;23;20444;-85
2023/09/12 20:24:05;;;;;;;8.05;3.55;;;;;;;;;;6190609;23;20502;-86
2023/09/12 20:26:31;;;;;;;8.48;2.90;;;;;;;;;;6217316;23;20015;-86
2023/09/12 20:28:57;;;;;;;4.32;2.65;;;;;;;;;;6191116;23;20020;-87
2023/09/12 20:31:23;;;;;;;8.23;3.00;;;;;;;;;;6191358;23;20016;-84
2023/09/12 20:33:54;;;;;;;11.07;3.30;;;;;;;;;;6217679;23;20016;-85
2023/09/12 20:36:28;;;;;;;7.50;2.90;;;;;;;;;;6194041;23;20020;-85
2023/09/12 20:39:25;;;;;;;7.53;2.53;;;;;;;;;;6191637;23;20020;-85
2023/09/12 20:42:00;;;;;;;9.77;2.85;;;;;;;;;;6222942;23;20007;-87
2023/09/12 20:44:29;;;;;;;6.10;2.72;;;;;;;;;;6198645;23;20028;-86
2023/09/12 20:47:08;;;;;;;;;;;;;;;;;;;;;
2023/09/12 20:49:44;;;;;;;10.70;3.17;;;;;;;;;;6183298;23;20348;-86
2023/09/12 20:52:20;;;;;;;5.88;2.60;;;;;;;;;;6135610;23;20059;-86
2023/09/12 20:54:53;;;;;;;7.05;2.65;;;;;;;;;;6158588;23;20016;-86
2023/09/12 20:57:20;;;;;;;7.72;2.80;;;;;;;;;;6136182;23;20072;-88
2023/09/12 21:00:04;;;;;;;9.52;3.17;;;;;;;;;;6160261;23;20017;-86
2023/09/12 21:02:39;;;;;;;10.00;3.13;;;;;;;;;;6135828;23;20021;-86
2023/09/12 21:05:08;;;;;;;8.93;2.90;;;;;;;;;;6158706;23;20095;-85
2023/09/12 21:07:34;;;;;;;8.05;3.15;;;;;;;;;;6134148;23;20017;-85
2023/09/12 21:10:09;;;;;;;9.68;3.08;;;;;;;;;;6133083;23;20013;-85
2023/09/12 21:12:47;;;;;;;7.47;2.88;;;;;;;;;;6159926;23;20017;-86
2023/09/12 21:15:27;;;;;;;8.05;3.13;;;;;;;;;;6133729;23;20013;-86
2023/09/12 21:18:03;;;;;;;6.50;3.00;;;;;;;;;;6158952;23;20052;-86
2023/09/12 21:20:34;;;;;;;;;;;;;;;;;;6184833;23;20023;-87
2023/09/12 21:23:02;;;;;;;6.82;2.83;;;;;;;;;;6184400;23;19915;-86
2023/09/12 21:25:37;;;;;;;10.52;2.97;;;;;;;;;;6219804;23;20350;-86
2023/09/12 21:28:14;;;;;;;8.90;3.35;;;;;;;;;;6195892;23;20016;-87
2023/09/12 21:30:43;;;;;;;8.35;3.08;;;;;;;;;;6194182;23;20012;-89
2023/09/12 21:33:19;;;;;;;9.35;3.25;;;;;;;;;;6220320;23;20094;-86
2023/09/12 21:36:01;;;;;;;10.65;3.00;;;;;;;;;;6195453;23;20091;-85
2023/09/12 21:38:28;;;;;;;7.30;3.10;;;;;;;;;;6194746;23;20024;-86
2023/09/12 21:40:58;;;;;;;7.18;3.10;;;;;;;;;;6219330;23;20074;-85
2023/09/12 21:43:30;;;;;;;9.40;3.35;;;;;;;;;;6245093;23;20186;-85
2023/09/12 21:45:56;;;;;;;6.63;3.70;;;;;;;;;;6192942;23;20508;-86
2023/09/12 21:48:22;;;;;;;7.82;3.17;;;;;;;;;;6219085;23;20107;-86
2023/09/12 21:50:51;;;;;;;11.05;3.85;;;;;;;;;;6192809;23;20456;-89
2023/09/12 21:53:19;;;;;;;9.02;3.17;;;;;;;;;;6192949;23;20060;-88
2023/09/12 21:56:08;;;;;;;8.25;3.25;;;;;;;;;;6193618;23;20552;-88
2023/09/12 21:58:37;;;;;;;7.40;3.20;;;;;;;;;;6193923;23;20078;-88
2023/09/12 22:01:05;;;;;;;8.48;3.22;;;;;;;;;;6218787;23;20044;-88
2023/09/12 22:03:34;;;;;;;9.65;3.10;;;;;;;;;;6219155;23;20447;-85
2023/09/12 22:06:03;;;;;;;7.93;3.05;;;;;;;;;;6193613;23;20016;-85
2023/09/12 22:08:29;;;;;;;10.63;3.40;;;;;;;;;;6195590;23;20069;-85
2023/09/12 22:10:58;;;;;;;12.38;3.22;;;;;;;;;;6223402;23;20012;-85
2023/09/12 22:13:32;;;;;;;6.88;2.97;;;;;;;;;;6195854;23;20019;-85
2023/09/12 22:16:08;;;;;;;7.00;3.00;;;;;;;;;;6193705;23;20094;-86
2023/09/12 22:18:34;;;;;;;9.18;3.00;;;;;;;;;;6195107;23;20051;-86
2023/09/12 22:21:07;;;;;;;10.15;3.00;;;;;;;;;;6195334;23;20039;-86
2023/09/12 22:23:34;;;;;;;5.70;3.05;;;;;;;;;;6219519;23;20024;-86
2023/09/12 22:26:10;;;;;;;8.05;3.08;;;;;;;;;;6194668;23;20020;-86
2023/09/12 22:28:37;;;;;;;9.75;3.33;;;;;;;;;;6220140;23;20016;-86
2023/09/12 22:31:08;;;;;;;7.88;2.70;;;;;;;;;;6193097;23;20432;-86
2023/09/12 22:33:34;;;;;;;7.85;3.13;;;;;;;;;;6194303;23;20019;-86
2023/09/12 22:36:06;;;;;;;7.93;2.90;;;;;;;;;;6194508;23;20320;-86
2023/09/12 22:38:40;;;;;;;5.75;3.08;;;;;;;;;;6194816;23;20054;-86
2023/09/12 22:41:20;;;;;;;7.80;2.70;;;;;;;;;;6195008;23;20336;-87
2023/09/12 22:44:02;;;;;;;;;;;;;;;;;;;;;
2023/09/12 22:46:32;;;;;;;12.80;3.30;;;;;;;;;;6214065;23;20028;-86
2023/09/12 22:49:07;;;;;;;8.07;2.83;;;;;;;;;;6196909;23;20029;-86
2023/09/12 22:51:36;;;;;;;9.50;3.20;;;;;;;;;;6196613;23;20016;-86
2023/09/12 22:54:02;;;;;;;8.80;2.83;;;;;;;;;;6196022;23;20016;-86
2023/09/12 22:56:28;;;;;;;9.45;2.85;;;;;;;;;;6196301;23;20012;-86
2023/09/12 22:58:54;;;;;;;11.13;3.35;;;;;;;;;;6196092;23;20147;-87
2023/09/12 23:01:21;;;;;;;9.13;2.70;;;;;;;;;;6197898;22;20016;-85
2023/09/12 23:03:55;;;;;;;8.90;3.00;;;;;;;;;;6196259;23;20058;-86
2023/09/12 23:06:21;;;;;;;7.60;2.60;;;;;;;;;;6195697;23;20039;-87
2023/09/12 23:08:47;;;;;;;7.53;2.67;;;;;;;;;;6219847;23;20051;-86
2023/09/12 23:11:16;;;;;;;10.57;2.95;;;;;;;;;;6195665;23;20012;-86
2023/09/12 23:13:45;;;;;;;8.93;3.35;;;;;;;;;;6195477;23;20012;-87
2023/09/12 23:16:11;;;;;;;5.90;3.05;;;;;;;;;;6195065;23;20467;-87
2023/09/12 23:18:37;;;;;;;8.10;3.08;;;;;;;;;;6195717;23;20051;-86
2023/09/12 23:21:04;;;;;;;10.43;3.45;;;;;;;;;;6195485;23;20027;-85
2023/09/12 23:23:35;;;;;;;8.45;2.85;;;;;;;;;;6220779;23;20094;-87
2023/09/12 23:26:01;;;;;;;15.48;2.75;;;;;;;;;;6194796;23;20350;-87
2023/09/12 23:28:30;;;;;;;4.68;2.47;;;;;;;;;;6196160;23;20363;-86
2023/09/12 23:31:01;;;;;;;8.02;2.83;;;;;;;;;;6194930;23;20016;-87
2023/09/12 23:33:33;;;;;;;4.22;2.20;;;;;;;;;;6220345;23;20074;-86
2023/09/12 23:36:02;;;;;;;7.00;2.90;;;;;;;;;;6196514;23;20428;-86
2023/09/12 23:38:34;;;;;;;6.05;2.53;;;;;;;;;;6192436;23;20032;-85
2023/09/12 23:41:00;;;;;;;8.52;2.80;;;;;;;;;;6194743;23;20103;-86
2023/09/12 23:43:33;;;;;;;7.18;2.50;;;;;;;;;;6220097;23;20027;-86
2023/09/12 23:46:02;;;;;;;6.90;2.53;;;;;;;;;;6194162;23;20499;-85
2023/09/12 23:48:28;;;;;;;7.22;2.40;;;;;;;;;;6194489;23;20122;-86
2023/09/12 23:51:02;;;;;;;6.93;2.65;;;;;;;;;;6193860;23;20055;-85
2023/09/12 23:53:28;;;;;;;5.97;2.40;;;;;;;;;;6194478;23;20098;-86
2023/09/12 23:55:59;;;;;;;7.35;2.70;;;;;;;;;;6220151;23;20020;-86
2023/09/12 23:58:41;;;;;;;7.68;2.47;;;;;;;;;;6195586;23;20016;-86
